createdAt,value
2023-12-27T00:00:20.982Z,1.83
2023-12-27T00:03:23.158Z,1.90
2023-12-27T00:06:25.281Z,1.87
2023-12-27T00:09:27.464Z,2.10
2023-12-27T00:12:29.506Z,1.60
2023-12-27T00:15:31.642Z,1.50
2023-12-27T00:18:33.845Z,1.80
2023-12-27T00:21:36.181Z,1.60
2023-12-27T00:24:38.330Z,1.63
2023-12-27T00:27:40.529Z,1.70
2023-12-27T00:30:42.778Z,1.70
2023-12-27T00:33:45.148Z,1.50
2023-12-27T00:36:47.292Z,1.77
2023-12-27T00:39:49.298Z,1.60
2023-12-27T00:42:52.471Z,1.80
2023-12-27T00:45:54.502Z,1.70
2023-12-27T00:48:56.686Z,1.50
2023-12-27T00:51:58.794Z,1.50
2023-12-27T00:55:01.369Z,1.57
2023-12-27T00:58:03.456Z,1.60
2023-12-27T01:01:05.564Z,1.87
2023-12-27T01:04:07.671Z,2.10
2023-12-27T01:07:09.748Z,1.37
2023-12-27T01:10:11.742Z,1.40
2023-12-27T01:13:14.874Z,1.83
2023-12-27T01:16:16.940Z,1.47
2023-12-27T01:19:19.038Z,1.63
2023-12-27T01:22:21.412Z,1.60
2023-12-27T01:25:23.401Z,1.77
2023-12-27T01:28:25.396Z,1.50
2023-12-27T01:31:27.511Z,1.43
2023-12-27T01:34:29.827Z,1.63
2023-12-27T01:37:33.794Z,1.40
2023-12-27T01:40:36.256Z,1.20
2023-12-27T01:43:39.119Z,1.80
2023-12-27T01:46:41.346Z,1.67
2023-12-27T01:49:43.497Z,1.30
2023-12-27T01:52:45.749Z,1.50
2023-12-27T01:55:48.851Z,1.87
2023-12-27T01:58:51.232Z,1.60
2023-12-27T02:01:53.822Z,1.70
2023-12-27T02:04:55.856Z,1.50
2023-12-27T02:07:59.196Z,1.70
2023-12-27T02:11:01.976Z,1.53
2023-12-27T02:14:07.700Z,1.50
2023-12-27T02:17:09.913Z,1.63
2023-12-27T02:20:12.302Z,1.57
2023-12-27T02:23:19.065Z,1.50
2023-12-27T02:26:21.534Z,1.40
2023-12-27T02:29:23.913Z,1.30
2023-12-27T02:32:27.809Z,1.43
2023-12-27T02:35:29.994Z,1.40
2023-12-27T02:38:32.060Z,1.60
2023-12-27T02:41:34.280Z,1.40
2023-12-27T02:44:36.398Z,1.30
2023-12-27T02:47:38.440Z,0.83
2023-12-27T02:50:40.563Z,1.20
2023-12-27T02:53:42.674Z,1.30
2023-12-27T02:56:44.707Z,1.10
2023-12-27T02:59:46.810Z,1.30
2023-12-27T03:02:48.857Z,1.40
2023-12-27T03:05:51.041Z,1.37
2023-12-27T03:08:55.132Z,1.00
2023-12-27T03:11:57.941Z,1.50
2023-12-27T03:14:59.998Z,0.87
2023-12-27T03:18:02.562Z,0.93
2023-12-27T03:21:05.033Z,1.13
2023-12-27T03:24:07.188Z,1.00
2023-12-27T03:27:09.408Z,1.03
2023-12-27T03:30:12.268Z,1.00
2023-12-27T03:33:14.522Z,0.93
2023-12-27T03:36:16.640Z,1.00
2023-12-27T03:39:18.871Z,1.00
2023-12-27T03:42:21.098Z,0.83
2023-12-27T03:45:23.221Z,0.90
2023-12-27T03:48:25.703Z,1.10
2023-12-27T03:51:27.988Z,1.10
2023-12-27T03:54:30.060Z,0.83
2023-12-27T03:57:32.394Z,0.80
2023-12-27T04:00:35.659Z,0.80
2023-12-27T04:03:37.928Z,0.80
2023-12-27T04:06:40.126Z,0.83
2023-12-27T04:09:42.747Z,0.60
2023-12-27T04:12:45.024Z,0.67
2023-12-27T04:15:47.408Z,0.80
2023-12-27T04:18:49.934Z,0.60
2023-12-27T04:21:52.745Z,0.60
2023-12-27T04:24:56.389Z,0.67
2023-12-27T04:27:59.877Z,1.23
2023-12-27T04:31:02.223Z,0.87
2023-12-27T04:34:04.591Z,1.20
2023-12-27T04:37:11.088Z,1.20
2023-12-27T04:40:13.184Z,0.63
2023-12-27T04:43:15.385Z,1.00
2023-12-27T04:46:17.929Z,0.90
2023-12-27T04:49:20.067Z,0.83
2023-12-27T04:52:22.723Z,0.97
2023-12-27T04:55:24.971Z,1.20
2023-12-27T04:58:26.994Z,1.20
2023-12-27T05:01:29.249Z,0.90
2023-12-27T05:04:31.258Z,0.97
2023-12-27T05:07:34.165Z,0.87
2023-12-27T05:10:36.155Z,1.00
2023-12-27T05:13:38.172Z,0.70
2023-12-27T05:16:40.205Z,0.90
2023-12-27T05:19:42.326Z,1.10
2023-12-27T05:22:45.773Z,1.17
2023-12-27T05:25:47.802Z,1.00
2023-12-27T05:28:49.853Z,1.30
2023-12-27T05:31:51.948Z,0.90
2023-12-27T05:34:54.428Z,1.30
2023-12-27T05:37:56.622Z,1.00
2023-12-27T05:40:58.832Z,1.27
2023-12-27T05:44:02.544Z,1.40
2023-12-27T05:47:04.691Z,0.90
2023-12-27T05:50:07.807Z,0.90
2023-12-27T05:53:13.595Z,1.10
2023-12-27T05:56:16.869Z,1.00
2023-12-27T05:59:18.966Z,1.13
2023-12-27T06:02:21.062Z,0.97
2023-12-27T06:05:24.192Z,1.20
2023-12-27T06:08:26.239Z,1.30
2023-12-27T06:11:28.314Z,0.90
2023-12-27T06:14:30.367Z,1.10
2023-12-27T06:17:32.522Z,0.90
2023-12-27T06:20:34.644Z,1.27
2023-12-27T06:23:36.882Z,1.17
2023-12-27T06:26:38.910Z,1.00
2023-12-27T06:29:41.047Z,1.00
2023-12-27T06:32:43.143Z,1.00
2023-12-27T06:35:45.354Z,0.90
2023-12-27T06:38:47.600Z,0.80
2023-12-27T06:41:49.786Z,1.17
2023-12-27T06:44:51.888Z,0.97
2023-12-27T06:47:54.068Z,0.93
2023-12-27T06:50:56.123Z,1.10
2023-12-27T06:53:58.107Z,0.80
2023-12-27T06:57:00.980Z,0.70
2023-12-27T07:00:04.189Z,0.90
2023-12-27T07:03:06.760Z,0.87
2023-12-27T07:06:09.353Z,1.30
2023-12-27T07:09:11.694Z,1.10
2023-12-27T07:12:14.092Z,1.10
2023-12-27T07:15:16.560Z,0.80
2023-12-27T07:18:18.736Z,1.10
2023-12-27T07:21:22.400Z,0.80
2023-12-27T07:24:24.488Z,0.90
2023-12-27T07:27:27.005Z,1.20
2023-12-27T07:30:29.282Z,0.87
2023-12-27T07:33:31.960Z,0.90
2023-12-27T07:36:34.259Z,0.97
2023-12-27T07:39:36.662Z,1.03
2023-12-27T07:42:39.008Z,0.80
2023-12-27T07:45:41.343Z,0.90
2023-12-27T07:48:43.590Z,0.97
2023-12-27T07:51:46.288Z,0.90
2023-12-27T07:54:48.282Z,1.00
2023-12-27T07:57:51.343Z,0.80
2023-12-27T08:00:54.589Z,0.90
2023-12-27T08:03:56.810Z,0.80
2023-12-27T08:06:58.993Z,1.03
2023-12-27T08:10:01.602Z,0.80
2023-12-27T08:13:05.105Z,0.90
2023-12-27T08:16:09.772Z,1.10
2023-12-27T08:19:11.923Z,0.97
2023-12-27T08:22:13.979Z,1.10
2023-12-27T08:25:17.080Z,0.93
2023-12-27T08:28:19.192Z,1.00
2023-12-27T08:31:21.402Z,0.93
2023-12-27T08:34:23.753Z,0.97
2023-12-27T08:37:27.223Z,1.00
2023-12-27T08:40:29.356Z,1.00
2023-12-27T08:43:31.342Z,0.80
2023-12-27T08:46:34.173Z,1.10
2023-12-27T08:49:36.472Z,1.10
2023-12-27T08:52:40.021Z,1.00
2023-12-27T08:55:42.011Z,1.10
2023-12-27T08:58:44.103Z,1.20
2023-12-27T09:01:46.169Z,1.13
2023-12-27T09:04:48.254Z,0.90
2023-12-27T09:07:50.322Z,1.20
2023-12-27T09:10:52.392Z,1.10
2023-12-27T09:13:54.415Z,0.90
2023-12-27T09:16:56.395Z,1.30
2023-12-27T09:19:58.453Z,0.97
2023-12-27T09:23:01.965Z,1.03
2023-12-27T09:26:04.116Z,1.13
2023-12-27T09:29:06.252Z,1.03
2023-12-27T09:32:08.384Z,1.23
2023-12-27T09:35:10.694Z,1.00
2023-12-27T09:38:12.793Z,1.10
2023-12-27T09:41:15.984Z,0.90
2023-12-27T09:44:21.711Z,1.03
2023-12-27T09:47:25.112Z,0.80
2023-12-27T09:50:27.248Z,0.83
2023-12-27T09:53:29.391Z,0.60
2023-12-27T09:56:32.773Z,0.60
2023-12-27T09:59:40.304Z,0.80
2023-12-27T10:02:43.530Z,0.70
2023-12-27T10:05:56.046Z,0.70
2023-12-27T10:08:59.018Z,0.70
2023-12-27T10:12:02.094Z,0.60
2023-12-27T10:15:05.979Z,0.60
2023-12-27T10:18:09.477Z,0.77
2023-12-27T10:21:13.267Z,0.60
2023-12-27T10:24:16.041Z,0.70
2023-12-27T10:27:18.632Z,0.83
2023-12-27T10:30:21.022Z,0.73
2023-12-27T10:33:28.649Z,0.70
2023-12-27T10:36:34.993Z,0.67
2023-12-27T10:39:43.702Z,0.50
2023-12-27T10:42:47.946Z,0.90
2023-12-27T10:45:49.983Z,0.90
2023-12-27T10:48:56.497Z,0.50
2023-12-27T10:52:00.826Z,0.63
2023-12-27T10:55:04.949Z,0.70
2023-12-27T10:58:12.136Z,0.87
2023-12-27T11:01:15.264Z,0.80
2023-12-27T11:04:19.867Z,0.70
2023-12-27T11:07:26.394Z,0.80
2023-12-27T11:10:31.509Z,0.60
2023-12-27T11:13:35.229Z,0.50
2023-12-27T11:16:41.026Z,1.13
2023-12-27T11:19:44.299Z,1.73
2023-12-27T11:22:46.566Z,1.63
2023-12-27T11:25:48.700Z,1.70
2023-12-27T11:28:51.317Z,1.50
2023-12-27T11:31:54.677Z,1.87
2023-12-27T11:34:57.285Z,1.73
2023-12-27T11:38:21.169Z,1.83
2023-12-27T11:41:23.338Z,1.53
2023-12-27T11:44:36.258Z,1.70
2023-12-27T11:47:39.536Z,1.67
2023-12-27T11:50:43.173Z,2.00
2023-12-27T11:53:47.444Z,2.33
2023-12-27T11:56:49.545Z,1.83
2023-12-27T11:59:57.052Z,1.53
2023-12-27T12:03:01.605Z,1.90
2023-12-27T12:06:35.951Z,2.00
2023-12-27T12:09:40.449Z,1.60
2023-12-27T12:12:43.547Z,1.60
2023-12-27T12:15:45.685Z,1.73
2023-12-27T12:18:49.035Z,2.13
2023-12-27T12:21:53.838Z,1.97
2023-12-27T12:25:07.144Z,2.30
2023-12-27T12:28:10.271Z,2.00
2023-12-27T12:31:13.169Z,1.70
2023-12-27T12:34:15.310Z,1.90
2023-12-27T12:37:18.709Z,1.73
2023-12-27T12:40:22.075Z,1.60
2023-12-27T12:43:24.172Z,1.53
2023-12-27T12:46:26.562Z,1.53
2023-12-27T12:49:30.837Z,1.50
2023-12-27T12:52:37.239Z,1.60
2023-12-27T12:55:39.532Z,1.43
2023-12-27T12:58:43.318Z,1.53
2023-12-27T13:01:45.764Z,1.50
2023-12-27T13:04:59.474Z,1.40
2023-12-27T13:08:07.815Z,1.60
2023-12-27T13:11:12.386Z,1.40
2023-12-27T13:14:15.702Z,1.47
2023-12-27T18:20:18.299Z,5.63
2023-12-27T18:23:20.449Z,5.73
2023-12-27T18:26:31.815Z,5.50
2023-12-27T18:29:41.213Z,5.30
2023-12-27T18:51:16.423Z,5.77
2023-12-27T18:54:28.550Z,5.43
2023-12-27T18:57:31.067Z,6.30
2023-12-27T19:00:33.510Z,5.17
2023-12-27T19:03:39.349Z,6.43
2023-12-27T19:06:41.980Z,6.03
2023-12-27T19:09:44.585Z,5.43
2023-12-27T19:12:47.319Z,5.27
2023-12-27T19:15:50.216Z,6.37
2023-12-27T19:18:53.090Z,5.33
2023-12-27T19:21:57.856Z,5.00
2023-12-27T19:25:00.591Z,4.90
2023-12-27T19:28:04.157Z,5.77
2023-12-27T19:31:07.504Z,5.60
2023-12-27T19:34:10.971Z,5.80
2023-12-27T19:37:13.688Z,4.80
2023-12-27T19:40:16.965Z,4.83
2023-12-27T19:43:19.637Z,5.03
2023-12-27T19:46:22.892Z,5.70
2023-12-27T19:49:26.167Z,5.10
2023-12-27T19:52:28.966Z,5.87
2023-12-27T19:55:31.810Z,5.70
2023-12-27T19:58:35.006Z,5.40
2023-12-27T20:01:38.207Z,5.47
2023-12-27T20:04:41.293Z,6.40
2023-12-27T20:07:44.502Z,5.50
2023-12-27T20:10:47.674Z,5.80
2023-12-27T20:13:53.431Z,5.50
2023-12-27T20:16:56.834Z,5.53
2023-12-27T20:20:00.826Z,6.33
2023-12-27T20:23:04.169Z,4.57
2023-12-27T20:26:09.073Z,5.30
2023-12-27T20:29:12.260Z,5.20
2023-12-27T20:32:18.792Z,5.40
2023-12-27T20:35:23.393Z,5.70
2023-12-27T20:38:28.090Z,4.97
2023-12-27T20:41:34.383Z,5.23
2023-12-27T20:44:37.596Z,5.00
2023-12-27T20:47:41.284Z,4.97
2023-12-27T20:50:44.848Z,4.53
2023-12-27T20:53:48.244Z,5.17
2023-12-27T20:56:51.767Z,5.10
2023-12-27T20:59:55.535Z,5.20
2023-12-27T21:02:59.001Z,4.73
2023-12-27T21:06:01.318Z,4.90
2023-12-27T21:09:04.375Z,5.30
2023-12-27T21:12:16.263Z,5.33
2023-12-27T21:15:18.605Z,4.63
2023-12-27T21:18:20.923Z,4.47
2023-12-27T21:21:23.209Z,5.50
2023-12-27T21:24:25.485Z,5.00
2023-12-27T21:27:28.240Z,4.67
2023-12-27T21:30:30.592Z,4.57
2023-12-27T21:33:47.969Z,5.47
2023-12-27T21:41:48.116Z,4.70
2023-12-27T21:44:58.170Z,4.63
2023-12-27T21:48:01.042Z,4.67
2023-12-27T21:51:03.716Z,4.23
2023-12-27T21:54:06.481Z,4.13
2023-12-27T21:57:08.867Z,4.13
2023-12-27T22:00:11.636Z,4.63
2023-12-27T22:03:14.303Z,4.33
2023-12-27T22:06:17.772Z,5.60
2023-12-27T22:09:20.406Z,4.33
2023-12-27T22:12:22.706Z,4.47
2023-12-27T22:15:25.057Z,4.13
2023-12-27T22:18:27.988Z,4.27
2023-12-27T22:21:31.439Z,4.23
2023-12-27T22:27:54.716Z,4.27
2023-12-27T22:39:09.474Z,4.10
2023-12-27T22:42:19.245Z,4.47
2023-12-27T22:57:00.367Z,4.53
2023-12-27T23:00:42.000Z,4.13
2023-12-27T23:03:46.751Z,3.77
2023-12-27T23:06:50.431Z,4.43
2023-12-27T23:09:53.158Z,4.40
2023-12-27T23:12:55.721Z,3.57
2023-12-27T23:15:59.776Z,4.20
2023-12-27T23:19:02.532Z,3.83
2023-12-27T23:22:05.588Z,4.23
2023-12-27T23:25:09.326Z,4.73
2023-12-27T23:28:11.936Z,3.70
2023-12-27T23:31:14.880Z,3.97
2023-12-27T23:34:17.373Z,4.30
2023-12-27T23:37:19.833Z,5.13
2023-12-27T23:40:22.095Z,3.87
2023-12-27T23:43:25.327Z,3.90
2023-12-27T23:46:27.398Z,4.23
2023-12-27T23:49:29.816Z,3.93
2023-12-27T23:52:32.156Z,3.80
2023-12-27T23:55:35.285Z,3.47
2023-12-27T23:58:38.562Z,3.57
